sensor_id;sensor_type;location;lat;lon;timestamp;pressure;altitude;pressure_sealevel;temperature;humidity
65151;BME280;51918;51.856;0.150;2023-04-23T00:00:21;99336.66;;;10.14;75.99
65151;BME280;51918;51.856;0.150;2023-04-23T00:05:26;99329.63;;;10.29;75.78
65151;BME280;51918;51.856;0.150;2023-04-23T00:10:26;99328.97;;;10.21;78.91
65151;BME280;51918;51.856;0.150;2023-04-23T00:15:28;99331.22;;;10.31;79.83
65151;BME280;51918;51.856;0.150;2023-04-23T00:20:30;99313.97;;;10.24;80.31
65151;BME280;51918;51.856;0.150;2023-04-23T00:25:31;99301.91;;;10.25;82.75
65151;BME280;51918;51.856;0.150;2023-04-23T00:30:32;99302.84;;;10.17;83.04
65151;BME280;51918;51.856;0.150;2023-04-23T00:35:37;99301.47;;;10.15;84.66
65151;BME280;51918;51.856;0.150;2023-04-23T00:40:44;99296.06;;;10.03;85.54
65151;BME280;51918;51.856;0.150;2023-04-23T00:45:56;99288.72;;;10.00;89.42
65151;BME280;51918;51.856;0.150;2023-04-23T00:50:59;99288.97;;;10.05;88.86
65151;BME280;51918;51.856;0.150;2023-04-23T00:56:04;99282.38;;;9.96;92.35
65151;BME280;51918;51.856;0.150;2023-04-23T01:01:05;99275.66;;;9.95;94.44
65151;BME280;51918;51.856;0.150;2023-04-23T01:06:08;99265.84;;;10.05;96.16
65151;BME280;51918;51.856;0.150;2023-04-23T01:11:08;99260.16;;;10.16;95.61
65151;BME280;51918;51.856;0.150;2023-04-23T01:16:09;99256.06;;;9.94;100.00
65151;BME280;51918;51.856;0.150;2023-04-23T01:21:13;99249.09;;;10.16;100.00
65151;BME280;51918;51.856;0.150;2023-04-23T01:26:17;99249.75;;;10.31;100.00
65151;BME280;51918;51.856;0.150;2023-04-23T01:31:18;99247.56;;;10.28;100.00
65151;BME280;51918;51.856;0.150;2023-04-23T01:36:19;99241.00;;;10.19;100.00
65151;BME280;51918;51.856;0.150;2023-04-23T01:41:22;99243.41;;;10.27;100.00
65151;BME280;51918;51.856;0.150;2023-04-23T01:46:22;99242.50;;;10.41;100.00
65151;BME280;51918;51.856;0.150;2023-04-23T01:51:24;99235.56;;;10.42;100.00
65151;BME280;51918;51.856;0.150;2023-04-23T01:56:27;99231.41;;;10.47;98.98
65151;BME280;51918;51.856;0.150;2023-04-23T02:01:40;99219.22;;;10.56;98.88
65151;BME280;51918;51.856;0.150;2023-04-23T02:06:43;99206.75;;;10.66;97.77
65151;BME280;51918;51.856;0.150;2023-04-23T02:11:45;99210.50;;;10.57;97.87
65151;BME280;51918;51.856;0.150;2023-04-23T02:16:45;99201.59;;;10.66;99.16
65151;BME280;51918;51.856;0.150;2023-04-23T02:21:46;99204.00;;;10.75;98.69
65151;BME280;51918;51.856;0.150;2023-04-23T02:26:48;99209.16;;;10.88;96.33
65151;BME280;51918;51.856;0.150;2023-04-23T02:31:49;99208.34;;;10.67;99.76
65151;BME280;51918;51.856;0.150;2023-04-23T02:36:49;99203.03;;;10.82;98.41
65151;BME280;51918;51.856;0.150;2023-04-23T02:41:51;99212.75;;;10.87;98.56
65151;BME280;51918;51.856;0.150;2023-04-23T02:46:52;99203.25;;;10.94;97.64
65151;BME280;51918;51.856;0.150;2023-04-23T02:51:52;99192.94;;;10.94;99.72
65151;BME280;51918;51.856;0.150;2023-04-23T02:56:54;99190.97;;;10.83;100.00
65151;BME280;51918;51.856;0.150;2023-04-23T03:01:55;99193.53;;;10.83;100.00
65151;BME280;51918;51.856;0.150;2023-04-23T03:06:55;99196.13;;;10.89;98.33
65151;BME280;51918;51.856;0.150;2023-04-23T03:11:57;99188.78;;;10.80;99.25
65151;BME280;51918;51.856;0.150;2023-04-23T03:16:58;99182.22;;;10.70;99.72
65151;BME280;51918;51.856;0.150;2023-04-23T03:21:59;99187.16;;;10.52;100.00
65151;BME280;51918;51.856;0.150;2023-04-23T03:27:00;99191.72;;;10.57;100.00
65151;BME280;51918;51.856;0.150;2023-04-23T03:32:01;99189.31;;;10.55;100.00
65151;BME280;51918;51.856;0.150;2023-04-23T03:37:02;99191.25;;;10.33;100.00
65151;BME280;51918;51.856;0.150;2023-04-23T03:42:04;99192.66;;;10.42;100.00
65151;BME280;51918;51.856;0.150;2023-04-23T03:47:04;99181.19;;;10.45;100.00
65151;BME280;51918;51.856;0.150;2023-04-23T03:52:05;99177.47;;;10.54;99.90
65151;BME280;51918;51.856;0.150;2023-04-23T03:57:07;99190.34;;;10.74;98.33
65151;BME280;51918;51.856;0.150;2023-04-23T04:02:08;99181.44;;;10.70;98.37
65151;BME280;51918;51.856;0.150;2023-04-23T04:07:08;99180.25;;;10.66;98.79
65151;BME280;51918;51.856;0.150;2023-04-23T04:12:10;99173.50;;;10.58;98.80
65151;BME280;51918;51.856;0.150;2023-04-23T04:17:11;99166.78;;;10.57;98.56
65151;BME280;51918;51.856;0.150;2023-04-23T04:22:11;99161.44;;;10.52;98.95
65151;BME280;51918;51.856;0.150;2023-04-23T04:27:13;99160.25;;;10.48;98.62
65151;BME280;51918;51.856;0.150;2023-04-23T04:32:14;99155.31;;;10.53;98.06
65151;BME280;51918;51.856;0.150;2023-04-23T04:37:15;99142.47;;;10.60;96.64
65151;BME280;51918;51.856;0.150;2023-04-23T04:42:17;99143.84;;;10.56;95.93
65151;BME280;51918;51.856;0.150;2023-04-23T04:47:18;99146.81;;;10.66;94.85
65151;BME280;51918;51.856;0.150;2023-04-23T04:52:18;99154.09;;;10.49;94.79
65151;BME280;51918;51.856;0.150;2023-04-23T04:57:20;99160.03;;;10.49;93.76
65151;BME280;51918;51.856;0.150;2023-04-23T05:02:21;99154.50;;;10.46;94.08
65151;BME280;51918;51.856;0.150;2023-04-23T05:07:22;99152.09;;;10.31;94.35
65151;BME280;51918;51.856;0.150;2023-04-23T05:12:24;99150.91;;;10.34;94.64
65151;BME280;51918;51.856;0.150;2023-04-23T05:17:24;99161.56;;;10.24;96.08
65151;BME280;51918;51.856;0.150;2023-04-23T05:22:25;99148.53;;;10.39;94.67
65151;BME280;51918;51.856;0.150;2023-04-23T05:27:27;99156.81;;;10.27;96.23
65151;BME280;51918;51.856;0.150;2023-04-23T05:32:29;99149.09;;;10.27;97.06
65151;BME280;51918;51.856;0.150;2023-04-23T05:37:30;99146.16;;;10.31;96.52
65151;BME280;51918;51.856;0.150;2023-04-23T05:42:33;99149.34;;;10.33;95.30
65151;BME280;51918;51.856;0.150;2023-04-23T05:47:34;99162.41;;;10.44;94.25
65151;BME280;51918;51.856;0.150;2023-04-23T05:52:34;99164.03;;;10.52;93.30
65151;BME280;51918;51.856;0.150;2023-04-23T05:57:36;99154.50;;;10.46;93.74
65151;BME280;51918;51.856;0.150;2023-04-23T06:02:38;99153.34;;;10.55;93.30
65151;BME280;51918;51.856;0.150;2023-04-23T06:07:39;99147.00;;;10.51;92.61
65151;BME280;51918;51.856;0.150;2023-04-23T06:12:41;99148.00;;;10.50;92.62
65151;BME280;51918;51.856;0.150;2023-04-23T06:17:41;99144.25;;;10.59;92.43
65151;BME280;51918;51.856;0.150;2023-04-23T06:22:42;99151.38;;;10.70;91.70
65151;BME280;51918;51.856;0.150;2023-04-23T06:27:44;99147.25;;;10.83;91.79
65151;BME280;51918;51.856;0.150;2023-04-23T06:32:45;99149.22;;;10.94;91.02
65151;BME280;51918;51.856;0.150;2023-04-23T06:37:46;99156.56;;;10.97;90.64
65151;BME280;51918;51.856;0.150;2023-04-23T06:42:48;99154.53;;;10.66;91.10
65151;BME280;51918;51.856;0.150;2023-04-23T06:47:48;99148.22;;;11.15;88.93
65151;BME280;51918;51.856;0.150;2023-04-23T06:52:49;99160.09;;;11.16;88.11
65151;BME280;51918;51.856;0.150;2023-04-23T06:57:51;99162.50;;;11.31;87.29
65151;BME280;51918;51.856;0.150;2023-04-23T07:02:52;99160.91;;;11.30;87.46
65151;BME280;51918;51.856;0.150;2023-04-23T07:07:52;99165.28;;;11.36;86.87
65151;BME280;51918;51.856;0.150;2023-04-23T07:12:54;99173.38;;;11.40;86.52
65151;BME280;51918;51.856;0.150;2023-04-23T07:17:55;99171.38;;;11.48;85.07
65151;BME280;51918;51.856;0.150;2023-04-23T07:22:56;99167.63;;;11.24;83.75
65151;BME280;51918;51.856;0.150;2023-04-23T07:27:58;99161.31;;;11.40;83.90
65151;BME280;51918;51.856;0.150;2023-04-23T07:32:59;99175.13;;;11.72;83.85
65151;BME280;51918;51.856;0.150;2023-04-23T07:38:00;99171.41;;;12.13;81.16
65151;BME280;51918;51.856;0.150;2023-04-23T07:43:02;99159.59;;;12.38;79.91
65151;BME280;51918;51.856;0.150;2023-04-23T07:48:02;99160.22;;;12.33;77.84
65151;BME280;51918;51.856;0.150;2023-04-23T07:53:03;99166.88;;;12.41;75.50
65151;BME280;51918;51.856;0.150;2023-04-23T07:58:05;99166.06;;;12.47;76.11
65151;BME280;51918;51.856;0.150;2023-04-23T08:03:06;99165.56;;;12.70;76.16
65151;BME280;51918;51.856;0.150;2023-04-23T08:08:06;99161.75;;;13.29;74.23
65151;BME280;51918;51.856;0.150;2023-04-23T08:13:08;99164.44;;;13.78;73.25
65151;BME280;51918;51.856;0.150;2023-04-23T08:18:09;99173.03;;;14.09;70.76
65151;BME280;51918;51.856;0.150;2023-04-23T08:23:10;99172.53;;;14.18;66.45
65151;BME280;51918;51.856;0.150;2023-04-23T08:28:12;99179.91;;;14.33;66.38
65151;BME280;51918;51.856;0.150;2023-04-23T08:33:13;99170.38;;;14.88;67.43
65151;BME280;51918;51.856;0.150;2023-04-23T08:38:13;99172.19;;;15.46;64.89
65151;BME280;51918;51.856;0.150;2023-04-23T08:43:18;99171.44;;;15.57;60.83
65151;BME280;51918;51.856;0.150;2023-04-23T08:48:20;99170.03;;;15.90;61.22
65151;BME280;51918;51.856;0.150;2023-04-23T08:53:22;99160.00;;;16.23;59.63
65151;BME280;51918;51.856;0.150;2023-04-23T08:58:26;99160.06;;;16.56;57.94
65151;BME280;51918;51.856;0.150;2023-04-23T09:03:28;99150.19;;;16.13;56.49
65151;BME280;51918;51.856;0.150;2023-04-23T09:08:29;99156.44;;;16.57;56.19
65151;BME280;51918;51.856;0.150;2023-04-23T09:13:32;99144.47;;;17.24;56.56
65151;BME280;51918;51.856;0.150;2023-04-23T09:18:34;99149.66;;;17.85;53.15
65151;BME280;51918;51.856;0.150;2023-04-23T09:23:38;99139.81;;;17.87;49.82
65151;BME280;51918;51.856;0.150;2023-04-23T09:28:40;99137.19;;;17.87;51.42
65151;BME280;51918;51.856;0.150;2023-04-23T09:33:40;99130.44;;;18.13;48.57
65151;BME280;51918;51.856;0.150;2023-04-23T09:38:41;99136.19;;;18.42;47.77
65151;BME280;51918;51.856;0.150;2023-04-23T09:43:46;99132.91;;;18.25;47.12
65151;BME280;51918;51.856;0.150;2023-04-23T09:48:47;99129.53;;;18.24;45.50
65151;BME280;51918;51.856;0.150;2023-04-23T09:53:47;99134.66;;;18.19;46.63
65151;BME280;51918;51.856;0.150;2023-04-23T09:58:49;99124.19;;;18.09;46.90
65151;BME280;51918;51.856;0.150;2023-04-23T10:03:52;99121.41;;;17.50;44.79
65151;BME280;51918;51.856;0.150;2023-04-23T10:08:53;99129.88;;;17.62;46.92
65151;BME280;51918;51.856;0.150;2023-04-23T10:13:55;99125.56;;;17.51;47.15
65151;BME280;51918;51.856;0.150;2023-04-23T10:18:58;99123.47;;;17.09;47.03
65151;BME280;51918;51.856;0.150;2023-04-23T10:24:01;99119.78;;;17.05;47.69
65151;BME280;51918;51.856;0.150;2023-04-23T10:29:04;99113.03;;;16.87;47.15
65151;BME280;51918;51.856;0.150;2023-04-23T10:34:09;99116.22;;;16.60;47.87
65151;BME280;51918;51.856;0.150;2023-04-23T10:39:10;99107.66;;;16.76;47.31
65151;BME280;51918;51.856;0.150;2023-04-23T10:44:13;99103.34;;;16.82;47.17
65151;BME280;51918;51.856;0.150;2023-04-23T10:49:14;99106.56;;;16.72;48.07
65151;BME280;51918;51.856;0.150;2023-04-23T10:54:15;99102.31;;;16.66;48.88
65151;BME280;51918;51.856;0.150;2023-04-23T10:59:20;99097.13;;;17.00;50.88
65151;BME280;51918;51.856;0.150;2023-04-23T11:04:22;99107.69;;;17.32;50.23
65151;BME280;51918;51.856;0.150;2023-04-23T11:09:37;99085.88;;;17.77;50.59
65151;BME280;51918;51.856;0.150;2023-04-23T11:14:57;99090.53;;;18.02;49.74
65151;BME280;51918;51.856;0.150;2023-04-23T11:20:07;99094.47;;;18.05;46.57
65151;BME280;51918;51.856;0.150;2023-04-23T11:25:09;99087.69;;;18.04;47.25
65151;BME280;51918;51.856;0.150;2023-04-23T11:30:13;99093.47;;;17.84;46.12
65151;BME280;51918;51.856;0.150;2023-04-23T11:35:14;99082.53;;;17.82;47.10
65151;BME280;51918;51.856;0.150;2023-04-23T11:40:16;99083.13;;;17.67;47.53
65151;BME280;51918;51.856;0.150;2023-04-23T11:45:19;99084.47;;;17.26;47.27
65151;BME280;51918;51.856;0.150;2023-04-23T11:50:22;99076.72;;;17.09;47.70
65151;BME280;51918;51.856;0.150;2023-04-23T11:55:23;99079.09;;;16.93;48.67
65151;BME280;51918;51.856;0.150;2023-04-23T12:00:26;99071.75;;;17.07;47.66
65151;BME280;51918;51.856;0.150;2023-04-23T12:05:27;99079.63;;;17.34;47.78
65151;BME280;51918;51.856;0.150;2023-04-23T12:10:28;99069.22;;;17.56;48.58
65151;BME280;51918;51.856;0.150;2023-04-23T12:15:30;99076.63;;;17.92;47.36
65151;BME280;51918;51.856;0.150;2023-04-23T12:20:31;99084.44;;;18.19;48.34
65151;BME280;51918;51.856;0.150;2023-04-23T12:25:32;99077.88;;;18.11;48.33
65151;BME280;51918;51.856;0.150;2023-04-23T12:30:42;99078.34;;;17.81;49.19
65151;BME280;51918;51.856;0.150;2023-04-23T12:35:48;99069.47;;;17.77;50.49
65151;BME280;51918;51.856;0.150;2023-04-23T12:40:48;99067.03;;;17.70;51.18
65151;BME280;51918;51.856;0.150;2023-04-23T12:45:51;99073.09;;;17.76;50.85
65151;BME280;51918;51.856;0.150;2023-04-23T12:50:52;99081.84;;;17.92;50.23
65151;BME280;51918;51.856;0.150;2023-04-23T12:55:52;99083.25;;;18.04;49.44
65151;BME280;51918;51.856;0.150;2023-04-23T13:00:54;99087.53;;;18.16;48.88
65151;BME280;51918;51.856;0.150;2023-04-23T13:05:55;99088.63;;;18.20;48.67
65151;BME280;51918;51.856;0.150;2023-04-23T13:10:56;99084.47;;;18.24;47.82
65151;BME280;51918;51.856;0.150;2023-04-23T13:15:58;99083.47;;;18.30;48.07
65151;BME280;51918;51.856;0.150;2023-04-23T13:20:59;99082.13;;;18.22;48.40
65151;BME280;51918;51.856;0.150;2023-04-23T13:25:59;99075.00;;;18.13;47.92
65151;BME280;51918;51.856;0.150;2023-04-23T13:31:02;99068.78;;;18.14;48.50
65151;BME280;51918;51.856;0.150;2023-04-23T13:36:03;99074.03;;;18.19;49.43
65151;BME280;51918;51.856;0.150;2023-04-23T13:41:04;99076.09;;;18.17;49.09
65151;BME280;51918;51.856;0.150;2023-04-23T13:46:06;99067.59;;;17.99;49.45
65151;BME280;51918;51.856;0.150;2023-04-23T13:51:07;99058.88;;;17.83;49.77
65151;BME280;51918;51.856;0.150;2023-04-23T13:56:07;99061.72;;;17.82;47.92
65151;BME280;51918;51.856;0.150;2023-04-23T14:01:09;99053.03;;;17.71;49.21
65151;BME280;51918;51.856;0.150;2023-04-23T14:06:10;99048.69;;;17.77;49.01
65151;BME280;51918;51.856;0.150;2023-04-23T14:11:11;99046.25;;;17.70;48.16
65151;BME280;51918;51.856;0.150;2023-04-23T14:16:13;99046.47;;;17.69;48.89
65151;BME280;51918;51.856;0.150;2023-04-23T14:21:13;99038.28;;;17.77;48.72
65151;BME280;51918;51.856;0.150;2023-04-23T14:26:22;99031.19;;;17.72;46.53
65151;BME280;51918;51.856;0.150;2023-04-23T14:31:28;99034.03;;;17.71;46.79
65151;BME280;51918;51.856;0.150;2023-04-23T14:36:28;99036.66;;;17.71;47.99
65151;BME280;51918;51.856;0.150;2023-04-23T14:41:30;99034.13;;;17.81;47.64
65151;BME280;51918;51.856;0.150;2023-04-23T14:46:32;99030.94;;;17.52;46.45
65151;BME280;51918;51.856;0.150;2023-04-23T14:51:32;99041.84;;;17.71;47.08
65151;BME280;51918;51.856;0.150;2023-04-23T14:56:33;99033.72;;;17.67;46.56
65151;BME280;51918;51.856;0.150;2023-04-23T15:01:35;99033.66;;;17.62;47.14
65151;BME280;51918;51.856;0.150;2023-04-23T15:06:36;99036.22;;;17.35;47.02
65151;BME280;51918;51.856;0.150;2023-04-23T15:11:36;99040.94;;;17.38;48.83
65151;BME280;51918;51.856;0.150;2023-04-23T15:16:38;99038.44;;;17.48;48.67
65151;BME280;51918;51.856;0.150;2023-04-23T15:21:39;99048.69;;;17.33;48.74
65151;BME280;51918;51.856;0.150;2023-04-23T15:26:40;99046.50;;;17.24;49.46
65151;BME280;51918;51.856;0.150;2023-04-23T15:31:42;99050.84;;;17.19;49.32
65151;BME280;51918;51.856;0.150;2023-04-23T15:36:42;99057.19;;;17.06;49.48
65151;BME280;51918;51.856;0.150;2023-04-23T15:41:43;99048.34;;;16.85;49.58
65151;BME280;51918;51.856;0.150;2023-04-23T15:46:45;99059.97;;;16.66;50.74
65151;BME280;51918;51.856;0.150;2023-04-23T15:51:46;99070.03;;;16.45;52.09
65151;BME280;51918;51.856;0.150;2023-04-23T15:56:46;99073.72;;;16.32;53.01
65151;BME280;51918;51.856;0.150;2023-04-23T16:01:51;99076.84;;;16.17;54.39
65151;BME280;51918;51.856;0.150;2023-04-23T16:06:52;99068.22;;;16.12;55.03
65151;BME280;51918;51.856;0.150;2023-04-23T16:11:52;99076.84;;;16.17;58.52
65151;BME280;51918;51.856;0.150;2023-04-23T16:16:54;99066.75;;;16.33;58.27
65151;BME280;51918;51.856;0.150;2023-04-23T16:21:55;99076.03;;;16.46;56.35
65151;BME280;51918;51.856;0.150;2023-04-23T16:26:56;99073.44;;;16.46;56.29
65151;BME280;51918;51.856;0.150;2023-04-23T16:31:58;99071.47;;;16.53;55.32
65151;BME280;51918;51.856;0.150;2023-04-23T16:36:58;99077.44;;;16.53;54.98
65151;BME280;51918;51.856;0.150;2023-04-23T16:41:59;99076.59;;;16.48;55.67
65151;BME280;51918;51.856;0.150;2023-04-23T16:47:01;99072.25;;;16.36;55.67
65151;BME280;51918;51.856;0.150;2023-04-23T16:52:02;99063.22;;;16.22;55.12
65151;BME280;51918;51.856;0.150;2023-04-23T16:57:02;99068.00;;;16.13;56.56
65151;BME280;51918;51.856;0.150;2023-04-23T17:02:04;99065.53;;;16.07;56.32
65151;BME280;51918;51.856;0.150;2023-04-23T17:07:05;99071.56;;;15.95;56.62
65151;BME280;51918;51.856;0.150;2023-04-23T17:12:06;99075.44;;;15.81;56.67
65151;BME280;51918;51.856;0.150;2023-04-23T17:17:08;99074.56;;;15.64;56.80
65151;BME280;51918;51.856;0.150;2023-04-23T17:22:08;99088.84;;;15.37;57.47
65151;BME280;51918;51.856;0.150;2023-04-23T17:27:09;99083.72;;;15.02;58.13
65151;BME280;51918;51.856;0.150;2023-04-23T17:32:11;99103.19;;;14.81;58.68
65151;BME280;51918;51.856;0.150;2023-04-23T17:37:12;99107.41;;;14.64;59.23
65151;BME280;51918;51.856;0.150;2023-04-23T17:42:13;99127.50;;;14.38;60.09
65151;BME280;51918;51.856;0.150;2023-04-23T17:47:15;99133.06;;;14.23;60.06
65151;BME280;51918;51.856;0.150;2023-04-23T17:52:15;99133.59;;;14.13;60.48
65151;BME280;51918;51.856;0.150;2023-04-23T17:57:16;99135.44;;;13.94;60.53
65151;BME280;51918;51.856;0.150;2023-04-23T18:02:18;99139.88;;;13.87;60.08
65151;BME280;51918;51.856;0.150;2023-04-23T18:07:19;99150.03;;;13.64;60.49
65151;BME280;51918;51.856;0.150;2023-04-23T18:12:20;99153.78;;;13.49;60.01
65151;BME280;51918;51.856;0.150;2023-04-23T18:17:24;99152.91;;;13.37;60.78
65151;BME280;51918;51.856;0.150;2023-04-23T18:22:25;99152.31;;;13.17;60.54
65151;BME280;51918;51.856;0.150;2023-04-23T18:27:26;99169.28;;;13.06;61.06
65151;BME280;51918;51.856;0.150;2023-04-23T18:32:28;99177.97;;;12.86;62.08
65151;BME280;51918;51.856;0.150;2023-04-23T18:37:36;99185.44;;;12.69;62.92
65151;BME280;51918;51.856;0.150;2023-04-23T18:42:37;99191.84;;;12.47;64.24
65151;BME280;51918;51.856;0.150;2023-04-23T18:47:49;99198.34;;;12.24;64.96
65151;BME280;51918;51.856;0.150;2023-04-23T18:52:50;99210.06;;;12.13;65.80
65151;BME280;51918;51.856;0.150;2023-04-23T18:57:51;99214.84;;;12.03;66.45
65151;BME280;51918;51.856;0.150;2023-04-23T19:02:53;99240.44;;;11.91;66.42
65151;BME280;51918;51.856;0.150;2023-04-23T19:07:54;99241.69;;;11.69;67.36
65151;BME280;51918;51.856;0.150;2023-04-23T19:12:54;99259.53;;;11.64;67.37
65151;BME280;51918;51.856;0.150;2023-04-23T19:17:57;99265.06;;;11.61;67.52
65151;BME280;51918;51.856;0.150;2023-04-23T19:22:57;99266.47;;;11.57;67.69
65151;BME280;51918;51.856;0.150;2023-04-23T19:27:58;99283.50;;;11.58;68.44
65151;BME280;51918;51.856;0.150;2023-04-23T19:33:00;99282.09;;;11.48;68.86
65151;BME280;51918;51.856;0.150;2023-04-23T19:38:01;99298.56;;;11.47;68.14
65151;BME280;51918;51.856;0.150;2023-04-23T19:43:01;99312.41;;;11.40;68.46
65151;BME280;51918;51.856;0.150;2023-04-23T19:48:04;99318.38;;;11.34;68.82
65151;BME280;51918;51.856;0.150;2023-04-23T19:53:04;99328.59;;;11.27;69.29
65151;BME280;51918;51.856;0.150;2023-04-23T19:58:05;99349.75;;;11.16;69.44
65151;BME280;51918;51.856;0.150;2023-04-23T20:03:07;99354.09;;;11.08;69.75
65151;BME280;51918;51.856;0.150;2023-04-23T20:08:08;99356.88;;;11.07;70.24
65151;BME280;51918;51.856;0.150;2023-04-23T20:13:08;99360.34;;;10.86;71.41
65151;BME280;51918;51.856;0.150;2023-04-23T20:18:11;99356.56;;;10.82;71.20
65151;BME280;51918;51.856;0.150;2023-04-23T20:23:11;99375.56;;;10.81;70.62
65151;BME280;51918;51.856;0.150;2023-04-23T20:28:12;99378.13;;;10.74;70.28
65151;BME280;51918;51.856;0.150;2023-04-23T20:33:14;99387.00;;;10.65;70.69
65151;BME280;51918;51.856;0.150;2023-04-23T20:38:15;99388.34;;;10.61;70.58
65151;BME280;51918;51.856;0.150;2023-04-23T20:43:16;99406.53;;;10.59;70.76
65151;BME280;51918;51.856;0.150;2023-04-23T20:48:18;99407.28;;;10.53;71.08
65151;BME280;51918;51.856;0.150;2023-04-23T20:53:18;99408.59;;;10.42;71.92
65151;BME280;51918;51.856;0.150;2023-04-23T20:58:20;99419.50;;;10.44;71.63
65151;BME280;51918;51.856;0.150;2023-04-23T21:03:23;99412.69;;;10.37;71.81
65151;BME280;51918;51.856;0.150;2023-04-23T21:08:23;99413.16;;;10.19;71.86
65151;BME280;51918;51.856;0.150;2023-04-23T21:13:25;99418.03;;;10.07;71.57
65151;BME280;51918;51.856;0.150;2023-04-23T21:18:27;99417.91;;;9.94;71.73
65151;BME280;51918;51.856;0.150;2023-04-23T21:23:28;99427.69;;;9.83;71.67
65151;BME280;51918;51.856;0.150;2023-04-23T21:28:30;99427.13;;;9.66;71.89
65151;BME280;51918;51.856;0.150;2023-04-23T21:33:32;99430.19;;;9.55;72.10
65151;BME280;51918;51.856;0.150;2023-04-23T21:38:33;99436.66;;;9.51;72.59
65151;BME280;51918;51.856;0.150;2023-04-23T21:43:34;99444.78;;;9.40;72.70
65151;BME280;51918;51.856;0.150;2023-04-23T21:48:36;99456.31;;;9.29;73.55
65151;BME280;51918;51.856;0.150;2023-04-23T21:53:36;99458.19;;;9.05;74.73
65151;BME280;51918;51.856;0.150;2023-04-23T21:58:37;99449.28;;;9.01;74.54
65151;BME280;51918;51.856;0.150;2023-04-23T22:03:39;99463.69;;;8.88;75.52
65151;BME280;51918;51.856;0.150;2023-04-23T22:08:39;99461.75;;;8.90;76.43
65151;BME280;51918;51.856;0.150;2023-04-23T22:13:40;99474.56;;;8.90;76.17
65151;BME280;51918;51.856;0.150;2023-04-23T22:18:42;99485.00;;;8.88;75.58
65151;BME280;51918;51.856;0.150;2023-04-23T22:23:42;99484.13;;;8.81;75.96
65151;BME280;51918;51.856;0.150;2023-04-23T22:28:43;99481.81;;;8.86;75.96
65151;BME280;51918;51.856;0.150;2023-04-23T22:33:46;99480.59;;;8.82;76.32
65151;BME280;51918;51.856;0.150;2023-04-23T22:38:46;99488.38;;;8.74;76.43
65151;BME280;51918;51.856;0.150;2023-04-23T22:43:47;99504.28;;;8.69;76.36
65151;BME280;51918;51.856;0.150;2023-04-23T22:48:49;99506.28;;;8.59;76.94
65151;BME280;51918;51.856;0.150;2023-04-23T22:53:49;99501.06;;;8.52;76.75
65151;BME280;51918;51.856;0.150;2023-04-23T22:58:50;99505.78;;;8.40;77.12
65151;BME280;51918;51.856;0.150;2023-04-23T23:03:52;99518.16;;;8.37;77.15
65151;BME280;51918;51.856;0.150;2023-04-23T23:08:52;99529.09;;;8.31;77.34
65151;BME280;51918;51.856;0.150;2023-04-23T23:13:53;99538.84;;;8.27;78.35
65151;BME280;51918;51.856;0.150;2023-04-23T23:18:55;99537.72;;;8.30;78.17
65151;BME280;51918;51.856;0.150;2023-04-23T23:23:56;99549.25;;;8.25;78.50
65151;BME280;51918;51.856;0.150;2023-04-23T23:28:57;99547.38;;;8.19;77.79
65151;BME280;51918;51.856;0.150;2023-04-23T23:33:58;99552.22;;;8.14;77.59
65151;BME280;51918;51.856;0.150;2023-04-23T23:38:59;99562.53;;;7.98;78.35
65151;BME280;51918;51.856;0.150;2023-04-23T23:43:59;99561.78;;;7.89;78.42
65151;BME280;51918;51.856;0.150;2023-04-23T23:49:01;99576.69;;;7.86;78.59
65151;BME280;51918;51.856;0.150;2023-04-23T23:54:02;99571.94;;;7.74;79.12
65151;BME280;51918;51.856;0.150;2023-04-23T23:59:03;99577.72;;;7.68;79.51
